Terminal Aerodrome Forecast
Issued by NWS

Home | Current Version | Previous Version | Graphics & Text | Print | Product List | Glossary On
Versions: 1 2 3 4 5 6 7 8 9 10 11 12 13 14 15
000
FTUS43 KTOP 091120
TAFFOE
TAF
KFOE 091120Z 0912/1012 31011KT P6SM FEW250
     FM091400 33013G20KT P6SM FEW250
     FM092100 32011KT P6SM FEW250
     FM100100 22006KT P6SM FEW250=

USA.gov is the U.S. government's official web portal to all federal, state and local government web resources and services.